Cross Plains, Indiana
Current Conditions -  °F | °C
As of 12:12 PM on Saturday 20 Dec 2014 (Local Time) from KIMS Reporting Station
Overcast Overcast  
Wind Chill: 32°   Ceiling: 1400
Heat Index: 32°   Visibility: 10mi
Dew Point: 27°   Wind: 0mph
Humidity: 80%   Direction: NA
Pressure: 30.3"   Gusts: NA
Location:  38.94°N, 85.2°W
Report Text: KIMS 201712Z AUTO 00000KT 10SM OVC014 00/M03 A3030 RMK AO1
Loading
Personal Weather Stations






























Interactive Weather Map New forecast layout! Learn more

10-Day Weather Forecast

Advertisements
Track Severe Weather on mobile